createdAt,value
2018-11-26T00:00:05.558Z,25.8
2018-11-26T00:01:05.531Z,25.7
2018-11-26T00:02:05.512Z,25.51
2018-11-26T00:03:05.493Z,26.08
2018-11-26T00:04:05.478Z,26.08
2018-11-26T00:05:05.456Z,25.8
2018-11-26T00:06:05.439Z,25.42
2018-11-26T00:07:05.422Z,25.99
2018-11-26T00:08:05.400Z,25.8
2018-11-26T00:09:05.379Z,25.7
2018-11-26T00:10:05.371Z,24.85
2018-11-26T00:11:05.347Z,24.57
2018-11-26T00:12:05.362Z,24.29
2018-11-26T00:13:05.310Z,24.38
2018-11-26T00:14:05.291Z,24.38
2018-11-26T00:15:05.279Z,24.19
2018-11-26T00:16:05.260Z,24.29
2018-11-26T00:17:05.232Z,24.57
2018-11-26T00:18:05.218Z,24.29
2018-11-26T00:19:05.206Z,24.19
2018-11-26T00:20:05.183Z,24.19
2018-11-26T00:21:05.162Z,23.63
2018-11-26T00:22:05.146Z,23.34
2018-11-26T00:23:05.125Z,23.25
2018-11-26T00:24:05.105Z,23.72
2018-11-26T00:25:05.086Z,24.02
2018-11-26T00:26:05.068Z,24.01
2018-11-26T00:27:05.050Z,24.1
2018-11-26T00:28:05.041Z,23.91
2018-11-26T00:29:05.037Z,24.21
2018-11-26T00:30:04.994Z,24.1
2018-11-26T00:31:04.979Z,23.73
2018-11-26T00:32:04.961Z,23.73
2018-11-26T00:33:04.944Z,23.54
2018-11-26T00:34:04.923Z,23.64
2018-11-26T00:35:04.906Z,23.83
2018-11-26T00:36:04.887Z,23.83
2018-11-26T00:37:04.874Z,24.39
2018-11-26T00:38:04.847Z,24.11
2018-11-26T00:39:04.829Z,25.05
2018-11-26T00:40:04.813Z,25.71
2018-11-26T00:41:04.797Z,25.9
2018-11-26T00:42:04.784Z,25.9
2018-11-26T00:43:04.759Z,26.47
2018-11-26T00:44:04.739Z,26.95
2018-11-26T00:45:04.470Z,26.85
2018-11-26T00:46:04.703Z,27.23
2018-11-26T00:47:04.437Z,27.51
2018-11-26T00:48:04.666Z,26.76
2018-11-26T00:49:04.654Z,25.52
2018-11-26T00:50:04.630Z,24.96
2018-11-26T00:51:04.616Z,24.77
2018-11-26T00:52:04.596Z,24.96
2018-11-26T00:53:04.579Z,24.77
2018-11-26T00:54:04.562Z,23.92
2018-11-26T00:55:04.541Z,23.83
2018-11-26T00:56:04.537Z,23.83
2018-11-26T00:57:04.506Z,23.54
2018-11-26T00:58:04.484Z,23.64
2018-11-26T00:59:04.222Z,24.02
2018-11-26T01:00:04.450Z,24.39
2018-11-26T01:01:04.436Z,24.68
2018-11-26T01:02:04.412Z,24.96
2018-11-26T01:03:04.148Z,25.15
2018-11-26T01:04:04.389Z,24.87
2018-11-26T01:05:04.357Z,25.15
2018-11-26T01:06:04.350Z,25.05
2018-11-26T01:07:04.321Z,25.15
2018-11-26T01:08:04.316Z,24.87
2018-11-26T01:09:04.297Z,25.15
2018-11-26T01:10:04.295Z,25.05
2018-11-26T01:11:04.248Z,25.24
2018-11-26T01:12:04.232Z,25.71
2018-11-26T01:13:04.225Z,25.9
2018-11-26T01:14:04.195Z,25.81
2018-11-26T01:15:03.928Z,25.62
2018-11-26T01:16:04.162Z,25.81
2018-11-26T01:17:04.142Z,25.9
2018-11-26T01:18:04.129Z,25.81
2018-11-26T01:19:04.108Z,26.57
2018-11-26T01:20:04.092Z,26.95
2018-11-26T01:21:04.072Z,26.76
2018-11-26T01:22:04.055Z,26.57
2018-11-26T01:23:04.032Z,26.66
2018-11-26T01:24:04.019Z,26.66
2018-11-26T01:25:04.022Z,26.66
2018-11-26T01:26:03.991Z,26.47
2018-11-26T01:27:03.961Z,26.76
2018-11-26T01:28:03.950Z,26.95
2018-11-26T01:29:03.928Z,26.85
2018-11-26T01:30:03.912Z,26.95
2018-11-26T01:31:03.644Z,27.14
2018-11-26T01:32:03.878Z,27.14
2018-11-26T01:33:03.863Z,27.42
2018-11-26T01:34:03.836Z,27.61
2018-11-26T01:35:03.823Z,27.7
2018-11-26T01:36:03.800Z,27.98
2018-11-26T01:37:03.779Z,27.51
2018-11-26T01:38:03.771Z,27.61
2018-11-26T01:39:03.511Z,27.51
2018-11-26T01:40:03.735Z,27.23
2018-11-26T01:41:03.712Z,27.7
2018-11-26T01:42:03.698Z,28.08
2018-11-26T01:43:03.671Z,28.55
2018-11-26T01:44:03.662Z,28.55
2018-11-26T01:45:03.638Z,28.65
2018-11-26T01:46:03.623Z,28.55
2018-11-26T01:47:03.612Z,28.55
2018-11-26T01:48:03.583Z,28.65
2018-11-26T01:49:03.565Z,28.55
2018-11-26T01:50:03.549Z,28.27
2018-11-26T01:51:03.529Z,27.98
2018-11-26T01:52:03.511Z,28.08
2018-11-26T01:53:03.497Z,28.08
2018-11-26T01:54:03.475Z,27.91
2018-11-26T01:55:03.464Z,28
2018-11-26T01:56:03.447Z,27.89
2018-11-26T01:57:03.426Z,28.17
2018-11-26T01:58:03.408Z,28.09
2018-11-26T01:59:03.385Z,27.7
2018-11-26T02:00:03.372Z,27.72
2018-11-26T02:01:03.352Z,28.19
2018-11-26T02:02:03.340Z,27.72
2018-11-26T02:03:03.318Z,28.09
2018-11-26T02:04:03.299Z,28.28
2018-11-26T02:05:03.281Z,28.57
2018-11-26T02:06:03.260Z,28.38
2018-11-26T02:07:03.251Z,28.66
2018-11-26T02:08:03.228Z,28.66
2018-11-26T02:09:03.216Z,28.84
2018-11-26T02:10:03.191Z,28.38
2018-11-26T02:11:03.176Z,28.65
2018-11-26T02:12:02.905Z,28.76
2018-11-26T02:13:03.139Z,28.47
2018-11-26T02:14:03.122Z,28.28
2018-11-26T02:15:03.102Z,27.62
2018-11-26T02:16:03.085Z,27.44
2018-11-26T02:17:03.064Z,27.06
2018-11-26T02:18:03.046Z,26.68
2018-11-26T02:19:03.030Z,25.9
2018-11-26T02:20:03.010Z,25.16
2018-11-26T02:21:02.995Z,25.15
2018-11-26T02:22:02.976Z,24.31
2018-11-26T02:23:02.961Z,23.74
2018-11-26T02:24:02.945Z,23.65
2018-11-26T02:25:02.922Z,23.45
2018-11-26T02:26:02.905Z,22.31
2018-11-26T02:27:02.888Z,21.85
2018-11-26T02:28:02.871Z,21.27
2018-11-26T02:29:02.852Z,21.09
2018-11-26T02:30:02.843Z,20.9
2018-11-26T02:31:02.818Z,21.09
2018-11-26T02:32:02.795Z,20.81
2018-11-26T02:33:02.787Z,21
2018-11-26T02:34:02.763Z,20.9
2018-11-26T02:35:02.745Z,20.43
2018-11-26T02:36:02.724Z,19.68
2018-11-26T02:37:02.711Z,19.68
2018-11-26T02:38:02.712Z,19.39
2018-11-26T02:39:02.677Z,19.11
2018-11-26T02:40:02.664Z,18.92
2018-11-26T02:41:02.639Z,18.73
2018-11-26T02:42:02.617Z,18.73
2018-11-26T02:43:02.621Z,18.54
2018-11-26T02:44:02.587Z,18.54
2018-11-26T02:45:02.569Z,18.82
2018-11-26T02:46:02.544Z,18.44
2018-11-26T02:47:02.529Z,18.54
2018-11-26T02:48:02.513Z,18.07
2018-11-26T02:49:02.498Z,18.07
2018-11-26T02:50:02.484Z,18.44
2018-11-26T02:51:02.460Z,18.26
2018-11-26T02:52:02.441Z,17.97
2018-11-26T02:53:02.181Z,18.07
2018-11-26T02:54:02.408Z,18.16
2018-11-26T02:55:02.389Z,18.16
2018-11-26T02:56:02.370Z,18.16
2018-11-26T02:57:02.348Z,18.35
2018-11-26T02:58:02.331Z,17.88
2018-11-26T02:59:02.315Z,17.69
2018-11-26T03:00:02.297Z,17.31
2018-11-26T03:01:02.276Z,16.93
2018-11-26T03:02:02.262Z,16.65
2018-11-26T03:03:02.254Z,16.93
2018-11-26T03:04:02.223Z,16.93
2018-11-26T03:05:02.207Z,16.74
2018-11-26T03:06:01.944Z,16.65
2018-11-26T03:07:02.170Z,16.93
2018-11-26T03:08:02.152Z,16.46
2018-11-26T03:09:02.137Z,16.84
2018-11-26T03:10:02.114Z,16.74
2018-11-26T03:11:02.099Z,16.55
2018-11-26T03:12:02.082Z,16.36
2018-11-26T03:13:02.064Z,16.27
2018-11-26T03:14:02.061Z,16.46
2018-11-26T03:15:02.032Z,16.65
2018-11-26T03:16:02.018Z,16.65
2018-11-26T03:17:02.003Z,16.93
2018-11-26T03:18:01.982Z,16.84
2018-11-26T03:19:01.959Z,16.84
2018-11-26T03:20:01.938Z,17.22
2018-11-26T03:21:01.966Z,17.22
2018-11-26T03:22:01.905Z,17.5
2018-11-26T03:23:01.633Z,17.5
2018-11-26T03:24:01.869Z,17.69
2018-11-26T03:25:01.848Z,17.97
2018-11-26T03:26:01.584Z,17.88
2018-11-26T03:27:01.813Z,17.6
2018-11-26T03:28:01.795Z,17.5
2018-11-26T03:29:01.777Z,17.41
2018-11-26T03:30:01.761Z,17.41
2018-11-26T03:31:01.755Z,17.5
2018-11-26T03:32:01.746Z,17.69
2018-11-26T03:33:01.722Z,18.16
2018-11-26T03:34:01.693Z,18.35
2018-11-26T03:35:01.681Z,18.54
2018-11-26T03:36:01.661Z,18.63
2018-11-26T03:37:01.638Z,18.82
2018-11-26T03:38:01.618Z,18.44
2018-11-26T03:39:01.621Z,18.44
2018-11-26T03:40:01.585Z,18.26
2018-11-26T03:41:01.581Z,18.16
2018-11-26T03:42:01.557Z,17.79
2018-11-26T03:43:01.542Z,17.6
2018-11-26T03:44:01.521Z,17.69
2018-11-26T03:45:01.496Z,17.6
2018-11-26T03:46:01.478Z,18.07
2018-11-26T03:47:01.462Z,18.44
2018-11-26T03:48:01.445Z,18.65
2018-11-26T03:49:01.175Z,18.54
2018-11-26T03:50:01.409Z,19.01
2018-11-26T03:51:01.396Z,18.82
2018-11-26T03:52:01.380Z,19.01
2018-11-26T03:53:01.359Z,19.68
2018-11-26T03:54:01.337Z,19.78
2018-11-26T03:55:01.321Z,19.78
2018-11-26T03:56:01.307Z,19.97
2018-11-26T03:57:01.289Z,20.44
2018-11-26T03:58:01.270Z,20.35
2018-11-26T03:59:01.253Z,20.82
2018-11-26T04:00:01.233Z,20.82
2018-11-26T04:01:01.221Z,21.2
2018-11-26T04:02:01.202Z,21.11
2018-11-26T04:03:01.184Z,21.3
2018-11-26T04:04:01.169Z,21.67
2018-11-26T04:05:01.151Z,21.95
2018-11-26T04:06:01.131Z,22.52
2018-11-26T04:07:01.114Z,22.81
2018-11-26T04:08:01.099Z,23.38
2018-11-26T04:09:01.082Z,23.66
2018-11-26T04:10:01.063Z,24.04
2018-11-26T04:11:01.047Z,24.42
2018-11-26T04:12:01.028Z,25.08
2018-11-26T04:13:01.012Z,25.56
2018-11-26T04:14:00.989Z,26.4
2018-11-26T04:15:00.979Z,26.5
2018-11-26T04:16:00.956Z,27.35
2018-11-26T04:17:00.941Z,27.64
2018-11-26T04:18:00.923Z,28.2
2018-11-26T04:19:00.907Z,28.67
2018-11-26T04:20:00.887Z,28.96
2018-11-26T04:21:00.876Z,29.62
2018-11-26T04:22:00.853Z,30.38
2018-11-26T04:23:00.843Z,30.57
2018-11-26T04:24:00.821Z,31.23
2018-11-26T04:25:00.553Z,31.52
2018-11-26T04:26:00.789Z,31.61
2018-11-26T04:27:00.989Z,31.61
2018-11-26T04:28:00.748Z,32.09
2018-11-26T04:29:00.740Z,32.37
2018-11-26T04:30:00.728Z,32.18
2018-11-26T04:31:00.702Z,32.46
2018-11-26T04:32:00.682Z,32.75
2018-11-26T04:33:00.665Z,33.31
2018-11-26T04:34:00.659Z,33.5
2018-11-26T04:35:00.634Z,33.98
2018-11-26T04:36:00.623Z,34.36
2018-11-26T04:37:01.266Z,34.26
2018-11-26T04:38:00.580Z,33.98
2018-11-26T04:39:00.564Z,34.26
2018-11-26T04:40:00.547Z,34.07
2018-11-26T04:41:00.529Z,34.36
2018-11-26T04:42:00.559Z,34.64
2018-11-26T04:43:00.493Z,35.11
2018-11-26T04:44:00.474Z,35.3
2018-11-26T04:45:00.458Z,35.58
2018-11-26T04:46:00.449Z,35.11
2018-11-26T04:47:00.427Z,35.58
2018-11-26T04:48:00.406Z,35.77
2018-11-26T04:49:00.398Z,35.77
2018-11-26T04:50:00.383Z,36.35
2018-11-26T04:51:00.360Z,36.44
2018-11-26T04:52:00.338Z,36.54
2018-11-26T04:53:00.332Z,37.29
2018-11-26T04:54:00.308Z,37.67
2018-11-26T04:55:00.290Z,37.95
2018-11-26T04:56:00.270Z,37.95
2018-11-26T04:57:00.012Z,37.57
2018-11-26T04:58:00.234Z,37.95
2018-11-26T04:59:00.222Z,37.95
2018-11-26T05:00:00.206Z,38.33
2018-11-26T05:01:00.215Z,38.52
2018-11-26T05:02:00.169Z,38.52
2018-11-26T05:03:00.161Z,38.81
2018-11-26T05:04:00.137Z,38.9
2018-11-26T05:05:00.122Z,39.09
2018-11-26T05:06:00.111Z,39.09
2018-11-26T05:07:00.085Z,39.47
2018-11-26T05:08:00.072Z,39.65
2018-11-26T05:09:00.051Z,39.75
2018-11-26T05:10:00.039Z,40.22
2018-11-26T05:11:00.021Z,40.51
2018-11-26T05:11:59.999Z,40.32
2018-11-26T05:12:59.980Z,40.41
2018-11-26T05:13:59.972Z,40.7
2018-11-26T05:14:59.948Z,40.32
2018-11-26T05:15:59.934Z,40.98
2018-11-26T05:16:59.912Z,41.36
2018-11-26T05:17:59.902Z,41.74
2018-11-26T05:18:59.886Z,42.5
2018-11-26T05:19:59.866Z,42.59
2018-11-26T05:20:59.848Z,42.3
2018-11-26T05:21:59.837Z,42.4
2018-11-26T05:22:59.817Z,42.78
2018-11-26T05:23:59.799Z,43.07
2018-11-26T05:24:59.784Z,43.16
2018-11-26T05:25:59.773Z,43.82
2018-11-26T05:26:59.748Z,44.1
2018-11-26T05:27:59.734Z,44.01
2018-11-26T05:28:59.712Z,44.2
2018-11-26T05:29:59.700Z,44.58
2018-11-26T05:30:59.681Z,44.96
2018-11-26T05:31:59.663Z,45.62
2018-11-26T05:32:59.648Z,45.34
2018-11-26T05:33:59.627Z,45.53
2018-11-26T05:34:59.614Z,45.81
2018-11-26T05:35:59.346Z,46
2018-11-26T05:36:59.580Z,47.04
2018-11-26T05:37:59.563Z,47.23
2018-11-26T05:38:59.547Z,47.89
2018-11-26T05:39:59.534Z,48.46
2018-11-26T05:40:59.518Z,47.89
2018-11-26T05:41:59.249Z,47.42
2018-11-26T05:42:59.478Z,47.61
2018-11-26T05:43:59.472Z,47.89
2018-11-26T05:44:59.442Z,48.36
2018-11-26T05:45:59.430Z,48.27
2018-11-26T05:46:59.169Z,48.27
2018-11-26T05:47:59.398Z,48.36
2018-11-26T05:48:59.378Z,48.36
2018-11-26T05:49:59.364Z,48.36
2018-11-26T05:50:59.094Z,48.36
2018-11-26T05:51:59.079Z,48.36
2018-11-26T05:52:59.311Z,48.36
2018-11-26T05:53:59.294Z,48.27
2018-11-26T05:54:59.282Z,48.74
2018-11-26T05:55:59.266Z,48.65
2018-11-26T05:56:59.251Z,48.96
2018-11-26T05:57:59.227Z,48.65
2018-11-26T05:58:59.208Z,48.27
2018-11-26T05:59:59.190Z,48.27
2018-11-26T06:00:59.176Z,48.18
2018-11-26T06:01:59.157Z,48.55
2018-11-26T06:02:59.154Z,48.55
2018-11-26T06:03:58.879Z,47.99
2018-11-26T06:04:59.109Z,47.51
2018-11-26T06:05:58.842Z,47.42
2018-11-26T06:06:59.077Z,47.8
2018-11-26T06:07:59.058Z,47.99
2018-11-26T06:08:59.041Z,47.61
2018-11-26T06:09:59.029Z,47.04
2018-11-26T06:10:59.007Z,47.06
2018-11-26T06:11:58.992Z,46
2018-11-26T06:12:58.973Z,45.72
2018-11-26T06:13:58.955Z,45.43
2018-11-26T06:14:58.940Z,46
2018-11-26T06:15:58.675Z,45.81
2018-11-26T06:16:58.910Z,45.05
2018-11-26T06:17:58.637Z,44.01
2018-11-26T06:18:58.871Z,43.65
2018-11-26T06:19:58.855Z,42.97
2018-11-26T06:20:58.839Z,42.59
2018-11-26T06:21:58.816Z,42.59
2018-11-26T06:22:58.801Z,42.3
2018-11-26T06:23:58.792Z,42.21
2018-11-26T06:24:58.770Z,41.83
2018-11-26T06:25:58.756Z,41.46
2018-11-26T06:26:58.735Z,41.08
2018-11-26T06:27:58.722Z,40.89
2018-11-26T06:28:58.457Z,40.79
2018-11-26T06:29:58.686Z,40.6
2018-11-26T06:30:58.675Z,40.32
2018-11-26T06:31:58.654Z,40.13
2018-11-26T06:32:58.636Z,40.7
2018-11-26T06:33:58.617Z,40.51
2018-11-26T06:34:58.351Z,40.22
2018-11-26T06:35:58.583Z,40.79
2018-11-26T06:36:58.569Z,39.94
2018-11-26T06:37:58.550Z,39.94
2018-11-26T06:38:58.542Z,39.68
2018-11-26T06:39:58.516Z,39.37
2018-11-26T06:40:58.501Z,39.18
2018-11-26T06:41:58.481Z,38.92
2018-11-26T06:42:58.472Z,38.52
2018-11-26T06:43:58.444Z,38.14
2018-11-26T06:44:58.435Z,37.95
2018-11-26T06:45:58.454Z,37.29
2018-11-26T06:46:58.397Z,37.1
2018-11-26T06:47:58.385Z,36.72
2018-11-26T06:48:58.363Z,36.82
2018-11-26T06:49:58.348Z,37.29
2018-11-26T06:50:58.334Z,37.19
2018-11-26T06:51:58.314Z,37.21
2018-11-26T06:52:58.294Z,37.12
2018-11-26T06:53:58.281Z,37.02
2018-11-26T06:54:58.267Z,37.4
2018-11-26T06:55:58.243Z,36.83
2018-11-26T06:56:58.224Z,36.93
2018-11-26T06:57:58.213Z,37.02
2018-11-26T06:58:58.195Z,36.65
2018-11-26T06:59:58.179Z,36.25
2018-11-26T07:00:58.162Z,36.55
2018-11-26T07:01:58.141Z,36.72
2018-11-26T07:02:58.137Z,36.46
2018-11-26T07:03:57.862Z,36.08
2018-11-26T07:04:58.090Z,35.32
2018-11-26T07:05:58.076Z,35.51
2018-11-26T07:06:58.057Z,35.32
2018-11-26T07:07:58.045Z,35.41
2018-11-26T07:08:58.024Z,35.98
2018-11-26T07:09:58.010Z,36.27
2018-11-26T07:10:58.008Z,35.79
2018-11-26T07:11:57.976Z,35.7
2018-11-26T07:12:57.961Z,35.41
2018-11-26T07:13:57.945Z,35.7
2018-11-26T07:14:57.922Z,35.7
2018-11-26T07:15:57.953Z,36.17
2018-11-26T07:16:57.894Z,36.46
2018-11-26T07:17:57.881Z,36.55
2018-11-26T07:18:57.861Z,36.17
2018-11-26T07:19:57.845Z,35.89
2018-11-26T07:20:57.825Z,35.79
2018-11-26T07:21:57.813Z,35.41
2018-11-26T07:22:57.791Z,35.22
2018-11-26T07:23:57.774Z,34.38
2018-11-26T07:24:57.759Z,34.47
2018-11-26T07:25:57.745Z,34.38
2018-11-26T07:26:57.727Z,34.47
2018-11-26T07:27:57.716Z,35.13
2018-11-26T07:28:57.698Z,35.51
2018-11-26T07:29:57.433Z,35.79
2018-11-26T07:30:57.658Z,35.51
2018-11-26T07:31:57.648Z,35.6
2018-11-26T07:32:57.625Z,35.51
2018-11-26T07:33:57.609Z,35.89
2018-11-26T07:34:57.590Z,35.79
2018-11-26T07:35:57.575Z,35.89
2018-11-26T07:36:57.560Z,36.08
2018-11-26T07:37:57.553Z,36.36
2018-11-26T07:38:57.523Z,36.27
2018-11-26T07:39:57.508Z,35.6
2018-11-26T07:40:57.487Z,35.79
2018-11-26T07:41:57.226Z,36.27
2018-11-26T07:42:57.462Z,37.02
2018-11-26T07:43:57.448Z,37.02
2018-11-26T07:44:57.430Z,36.93
2018-11-26T07:45:57.408Z,36.83
2018-11-26T07:46:57.391Z,37.21
2018-11-26T07:47:57.380Z,37.78
2018-11-26T07:48:57.363Z,37.97
2018-11-26T07:49:57.341Z,37.97
2018-11-26T07:50:57.326Z,38.07
2018-11-26T07:51:57.309Z,38.54
2018-11-26T07:52:57.293Z,38.82
2018-11-26T07:53:57.275Z,38.45
2018-11-26T07:54:57.260Z,38.64
2018-11-26T07:55:57.245Z,38.82
2018-11-26T07:56:57.222Z,39.2
2018-11-26T07:57:57.211Z,39.2
2018-11-26T07:58:57.189Z,39.58
2018-11-26T07:59:57.176Z,40.44
2018-11-26T08:00:56.914Z,41.19
2018-11-26T08:01:57.141Z,41.38
2018-11-26T08:02:57.123Z,42.43
2018-11-26T08:03:57.107Z,42.71
2018-11-26T08:04:57.092Z,42.99
2018-11-26T08:05:57.075Z,43.27
2018-11-26T08:06:57.059Z,43.65
2018-11-26T08:07:56.790Z,44.22
2018-11-26T08:08:56.777Z,44.98
2018-11-26T08:09:57.011Z,45.64
2018-11-26T08:10:56.995Z,45.83
2018-11-26T08:11:56.971Z,46.21
2018-11-26T08:12:56.969Z,46.31
2018-11-26T08:13:56.940Z,47.25
2018-11-26T08:14:56.925Z,47.25
2018-11-26T08:15:56.911Z,48.49
2018-11-26T08:16:56.895Z,48.96
2018-11-26T08:17:56.875Z,49.33
2018-11-26T08:18:56.861Z,50.09
2018-11-26T08:19:56.841Z,50.28
2018-11-26T08:20:56.831Z,51.51
2018-11-26T08:21:56.814Z,52.75
2018-11-26T08:22:56.793Z,53.31
2018-11-26T08:23:56.782Z,53.88
2018-11-26T08:24:56.760Z,54.93
2018-11-26T08:25:56.751Z,55.77
2018-11-26T08:26:56.732Z,55.96
2018-11-26T08:27:56.716Z,56.72
2018-11-26T08:28:56.693Z,58.33
2018-11-26T08:29:56.681Z,58.71
2018-11-26T08:30:56.658Z,58.14
2018-11-26T08:31:56.645Z,58.43
2018-11-26T08:32:56.630Z,58.52
2018-11-26T08:33:56.612Z,57.39
2018-11-26T08:34:56.597Z,57.2
2018-11-26T08:35:56.579Z,56.15
2018-11-26T08:36:56.562Z,55.77
2018-11-26T08:37:56.549Z,54.74
2018-11-26T08:38:56.530Z,54.26
2018-11-26T08:39:56.510Z,53.88
2018-11-26T08:40:56.499Z,53.88
2018-11-26T08:41:56.479Z,53.97
2018-11-26T08:42:56.467Z,53.88
2018-11-26T08:43:56.446Z,53.78
2018-11-26T08:44:56.437Z,53.88
2018-11-26T08:45:56.415Z,53.97
2018-11-26T08:46:56.409Z,53.78
2018-11-26T08:47:56.132Z,53.78
2018-11-26T08:48:56.365Z,54.16
2018-11-26T08:49:56.355Z,53.97
2018-11-26T08:50:56.337Z,53.03
2018-11-26T08:51:56.340Z,52.84
2018-11-26T08:52:56.300Z,53.78
2018-11-26T08:53:56.281Z,53.88
2018-11-26T08:54:56.266Z,53.88
2018-11-26T08:55:56.000Z,54.83
2018-11-26T08:56:56.232Z,55.96
2018-11-26T08:57:55.973Z,56.44
2018-11-26T08:58:56.219Z,56.82
2018-11-26T08:59:56.208Z,57.67
2018-11-26T09:00:56.185Z,57.57
2018-11-26T09:01:56.228Z,57.39
2018-11-26T09:02:56.201Z,57.39
2018-11-26T09:03:56.184Z,57.57
2018-11-26T09:04:56.223Z,56.91
2018-11-26T09:05:56.202Z,56.44
2018-11-26T09:06:56.186Z,56.15
2018-11-26T09:07:56.228Z,56.82
2018-11-26T09:08:56.201Z,55.77
2018-11-26T09:09:56.191Z,55.21
2018-11-26T09:10:56.225Z,54.16
2018-11-26T09:11:56.209Z,53.03
2018-11-26T09:12:56.187Z,52.56
2018-11-26T09:13:56.229Z,52.94
2018-11-26T09:14:56.211Z,53.22
2018-11-26T09:15:56.194Z,53.03
2018-11-26T09:16:56.227Z,52.08
2018-11-26T09:17:56.212Z,51.23
2018-11-26T09:18:56.197Z,50
2018-11-26T09:19:56.183Z,49.62
2018-11-26T09:20:56.165Z,48.58
2018-11-26T09:21:56.148Z,49.05
2018-11-26T09:22:56.129Z,48.29
2018-11-26T09:23:56.113Z,49.05
2018-11-26T09:24:56.093Z,48.86
2018-11-26T09:25:56.088Z,49.43
2018-11-26T09:26:55.814Z,48.96
2018-11-26T09:27:55.808Z,48.39
2018-11-26T09:28:56.027Z,47.53
2018-11-26T09:29:56.012Z,46.21
2018-11-26T09:30:55.996Z,45.26
2018-11-26T09:31:55.976Z,43.56
2018-11-26T09:32:55.963Z,43.56
2018-11-26T09:33:55.952Z,43.46
2018-11-26T09:34:55.931Z,42.99
2018-11-26T09:35:55.914Z,40.81
2018-11-26T09:36:55.898Z,39.87
2018-11-26T09:37:55.883Z,39.37
2018-11-26T09:38:55.864Z,38.92
2018-11-26T09:39:55.845Z,38.07
2018-11-26T09:40:55.835Z,38.07
2018-11-26T09:41:55.566Z,37.5
2018-11-26T09:42:55.816Z,36.74
2018-11-26T09:43:55.779Z,37.31
2018-11-26T09:44:55.763Z,37.29
2018-11-26T09:45:55.744Z,36.74
2018-11-26T09:46:55.732Z,35.6
2018-11-26T09:47:55.712Z,35.68
2018-11-26T09:48:55.696Z,34.75
2018-11-26T09:49:55.680Z,34.92
2018-11-26T09:50:55.663Z,35.3
2018-11-26T09:51:55.643Z,35.11
2018-11-26T09:52:55.902Z,34.92
2018-11-26T09:53:55.617Z,34.84
2018-11-26T09:54:55.591Z,34.17
2018-11-26T09:55:55.588Z,35.3
2018-11-26T09:56:55.602Z,35.02
2018-11-26T09:57:55.550Z,35.02
2018-11-26T09:58:55.521Z,34.45
2018-11-26T09:59:55.512Z,34.26
2018-11-26T10:00:55.492Z,34.07
2018-11-26T10:01:55.476Z,33.6
2018-11-26T10:02:55.456Z,32.56
2018-11-26T10:03:55.440Z,32.09
2018-11-26T10:04:55.425Z,31.71
2018-11-26T10:05:55.411Z,31.14
2018-11-26T10:06:55.387Z,31.14
2018-11-26T10:07:55.380Z,30.76
2018-11-26T10:08:55.114Z,31.25
2018-11-26T10:09:55.337Z,31.72
2018-11-26T10:10:55.074Z,31.91
2018-11-26T10:11:55.302Z,32.65
2018-11-26T10:12:55.288Z,33.03
2018-11-26T10:13:55.278Z,33.31
2018-11-26T10:14:55.251Z,34.28
2018-11-26T10:15:55.238Z,35.3
2018-11-26T10:16:55.224Z,35.7
2018-11-26T10:17:55.205Z,35.3
2018-11-26T10:18:55.193Z,35.39
2018-11-26T10:19:55.170Z,35.11
2018-11-26T10:20:55.146Z,35.49
2018-11-26T10:21:55.133Z,35.49
2018-11-26T10:22:55.113Z,35.32
2018-11-26T10:23:55.099Z,35.49
2018-11-26T10:24:55.083Z,36.08
2018-11-26T10:25:55.069Z,35.7
2018-11-26T10:26:55.051Z,35.68
2018-11-26T10:27:55.033Z,35.49
2018-11-26T10:28:55.015Z,35.22
2018-11-26T10:29:54.999Z,34.94
2018-11-26T10:30:54.978Z,34.74
2018-11-26T10:31:54.969Z,35.79
2018-11-26T10:32:54.953Z,35.51
2018-11-26T10:33:54.684Z,35.51
2018-11-26T10:34:54.917Z,35.58
2018-11-26T10:35:54.901Z,35.41
2018-11-26T10:36:54.883Z,35.7
2018-11-26T10:37:54.866Z,36.08
2018-11-26T10:38:54.848Z,37.97
2018-11-26T10:39:54.832Z,38.26
2018-11-26T10:40:54.814Z,38.16
2018-11-26T10:41:54.797Z,38.73
2018-11-26T10:42:54.790Z,38.64
2018-11-26T10:43:54.762Z,38.64
2018-11-26T10:44:54.745Z,38.45
2018-11-26T10:45:54.731Z,38.45
2018-11-26T10:46:54.716Z,38.35
2018-11-26T10:47:54.699Z,39.2
2018-11-26T10:48:54.684Z,38.92
2018-11-26T10:49:54.661Z,38.92
2018-11-26T10:50:54.649Z,39.68
2018-11-26T10:51:54.626Z,39.77
2018-11-26T10:52:54.609Z,40.7
2018-11-26T10:53:54.590Z,41.38
2018-11-26T10:54:54.578Z,42.23
2018-11-26T10:55:54.841Z,41.95
2018-11-26T10:56:54.543Z,42.04
2018-11-26T10:57:54.524Z,42.43
2018-11-26T10:58:54.508Z,43.37
2018-11-26T10:59:54.488Z,44.41
2018-11-26T11:00:54.479Z,44.7
2018-11-26T11:01:54.461Z,44.32
2018-11-26T11:02:54.191Z,43.54
2018-11-26T11:03:54.452Z,42.78
2018-11-26T11:04:54.405Z,42.11
2018-11-26T11:05:54.397Z,41.57
2018-11-26T11:06:58.304Z,41.57
2018-11-26T11:07:54.356Z,41.66
2018-11-26T11:08:54.342Z,42.33
2018-11-26T11:09:54.319Z,42.3
2018-11-26T11:10:54.309Z,42.33
2018-11-26T11:11:54.290Z,41.85
2018-11-26T11:12:54.274Z,41.36
2018-11-26T11:13:54.253Z,41.47
2018-11-26T11:14:54.239Z,41.74
2018-11-26T11:15:54.226Z,42.43
2018-11-26T11:16:54.208Z,42.21
2018-11-26T11:17:54.194Z,41.74
2018-11-26T11:18:54.167Z,40.98
2018-11-26T11:19:54.154Z,40.03
2018-11-26T11:20:54.139Z,39.56
2018-11-26T11:21:54.118Z,38.33
2018-11-26T11:22:54.107Z,38.05
2018-11-26T11:23:54.088Z,37.86
2018-11-26T11:24:54.066Z,37.21
2018-11-26T11:25:54.053Z,37.19
2018-11-26T11:26:54.102Z,37.31
2018-11-26T11:27:54.018Z,36.72
2018-11-26T11:28:54.002Z,37.01
2018-11-26T11:29:53.731Z,36.63
2018-11-26T11:30:53.964Z,36.36
2018-11-26T11:31:53.948Z,37.59
2018-11-26T11:32:53.935Z,37.97
2018-11-26T11:33:53.913Z,38.35
2018-11-26T11:34:53.906Z,38.92
2018-11-26T11:35:53.882Z,38.35
2018-11-26T11:36:53.861Z,38.82
2018-11-26T11:37:53.896Z,39.68
2018-11-26T11:38:53.828Z,40.22
2018-11-26T11:39:53.816Z,40.25
2018-11-26T11:40:53.794Z,41.09
2018-11-26T11:41:53.782Z,41.47
2018-11-26T11:42:53.768Z,41.57
2018-11-26T11:43:53.740Z,40.53
2018-11-26T11:44:53.725Z,40.25
2018-11-26T11:45:53.713Z,40.51
2018-11-26T11:46:53.697Z,40.98
2018-11-26T11:47:53.675Z,41.46
2018-11-26T11:48:53.662Z,41.95
2018-11-26T11:49:53.645Z,42.23
2018-11-26T11:50:53.628Z,43.37
2018-11-26T11:51:53.604Z,44.13
2018-11-26T11:52:53.588Z,44.39
2018-11-26T11:53:53.579Z,43.73
2018-11-26T11:54:53.559Z,43.27
2018-11-26T11:55:53.542Z,43.26
2018-11-26T11:56:53.522Z,44.41
2018-11-26T11:57:53.518Z,45.07
2018-11-26T11:58:53.238Z,46.31
2018-11-26T11:59:53.472Z,45.83
2018-11-26T12:00:53.209Z,45.83
2018-11-26T12:01:53.442Z,46.21
2018-11-26T12:02:53.425Z,45.64
2018-11-26T12:03:53.409Z,46
2018-11-26T12:04:53.140Z,48.49
2018-11-26T12:05:53.373Z,48.86
2018-11-26T12:06:53.460Z,49.62
2018-11-26T12:07:53.337Z,49.62
2018-11-26T12:08:53.322Z,49.71
2018-11-26T12:09:53.307Z,49.69
2018-11-26T12:10:53.290Z,49.71
2018-11-26T12:11:53.272Z,50.19
2018-11-26T12:12:53.256Z,50.45
2018-11-26T12:13:53.237Z,50.47
2018-11-26T12:14:53.219Z,51.68
2018-11-26T12:15:53.210Z,51.8
2018-11-26T12:16:53.218Z,53.31
2018-11-26T12:17:53.165Z,55.49
2018-11-26T12:18:53.155Z,55.65
2018-11-26T12:19:53.152Z,55.94
2018-11-26T12:20:53.117Z,55.65
2018-11-26T12:21:53.100Z,54.99
2018-11-26T12:22:53.082Z,55.56
2018-11-26T12:23:53.068Z,54.71
2018-11-26T12:24:53.054Z,54.71
2018-11-26T12:25:52.858Z,55.08
2018-11-26T12:26:53.016Z,54.52
2018-11-26T12:27:52.749Z,53.19
2018-11-26T12:28:52.987Z,52.53
2018-11-26T12:29:52.971Z,51.77
2018-11-26T12:30:52.948Z,50.92
2018-11-26T12:31:52.928Z,50.82
2018-11-26T12:32:52.911Z,50.63
2018-11-26T12:33:52.896Z,50.26
2018-11-26T12:34:52.878Z,50.35
2018-11-26T12:35:52.612Z,50.73
2018-11-26T12:36:57.741Z,51.2
2018-11-26T12:37:52.825Z,50.92
2018-11-26T12:38:52.815Z,50.35
2018-11-26T12:39:52.792Z,49.79
2018-11-26T12:40:52.777Z,48.18
2018-11-26T12:41:52.762Z,47.04
2018-11-26T12:42:52.741Z,46.47
2018-11-26T12:43:52.727Z,46.37
2018-11-26T12:44:52.464Z,45.34
2018-11-26T12:45:52.701Z,44.86
2018-11-26T12:46:52.675Z,44.86
2018-11-26T12:47:52.655Z,44.39
2018-11-26T12:48:52.640Z,45.43
2018-11-26T12:49:52.621Z,45.72
2018-11-26T12:50:52.609Z,46.19
2018-11-26T12:51:52.584Z,47.04
2018-11-26T12:52:52.569Z,47.61
2018-11-26T12:53:52.554Z,47.42
2018-11-26T12:54:52.289Z,48.08